sensor_id;sensor_type;location;lat;lon;timestamp;P1;durP1;ratioP1;P2;durP2;ratioP2
62582;SDS011;48641;51.676;5.808;2023-02-28T00:00:33;7.07;;;3.20;;
62582;SDS011;48641;51.676;5.808;2023-02-28T00:02:59;7.25;;;3.28;;
62582;SDS011;48641;51.676;5.808;2023-02-28T00:05:26;6.72;;;2.90;;
62582;SDS011;48641;51.676;5.808;2023-02-28T00:07:52;6.75;;;2.92;;
62582;SDS011;48641;51.676;5.808;2023-02-28T00:10:19;6.93;;;3.05;;
62582;SDS011;48641;51.676;5.808;2023-02-28T00:15:13;7.40;;;2.97;;
62582;SDS011;48641;51.676;5.808;2023-02-28T00:17:39;6.60;;;2.70;;
62582;SDS011;48641;51.676;5.808;2023-02-28T00:20:05;6.68;;;3.10;;
62582;SDS011;48641;51.676;5.808;2023-02-28T00:22:35;6.80;;;2.78;;
62582;SDS011;48641;51.676;5.808;2023-02-28T00:25:02;6.82;;;3.25;;
62582;SDS011;48641;51.676;5.808;2023-02-28T00:27:29;5.93;;;2.85;;
62582;SDS011;48641;51.676;5.808;2023-02-28T00:29:54;7.38;;;3.05;;
62582;SDS011;48641;51.676;5.808;2023-02-28T00:32:20;6.03;;;2.72;;
62582;SDS011;48641;51.676;5.808;2023-02-28T00:34:46;7.43;;;2.97;;
62582;SDS011;48641;51.676;5.808;2023-02-28T00:37:11;6.93;;;2.72;;
62582;SDS011;48641;51.676;5.808;2023-02-28T00:39:38;8.35;;;3.33;;
62582;SDS011;48641;51.676;5.808;2023-02-28T00:42:04;6.90;;;2.60;;
62582;SDS011;48641;51.676;5.808;2023-02-28T00:44:31;6.30;;;2.90;;
62582;SDS011;48641;51.676;5.808;2023-02-28T00:46:57;6.47;;;2.92;;
62582;SDS011;48641;51.676;5.808;2023-02-28T00:49:24;5.97;;;2.60;;
62582;SDS011;48641;51.676;5.808;2023-02-28T00:51:50;6.57;;;2.70;;
62582;SDS011;48641;51.676;5.808;2023-02-28T00:54:16;7.13;;;2.88;;
62582;SDS011;48641;51.676;5.808;2023-02-28T00:56:41;6.35;;;2.80;;
62582;SDS011;48641;51.676;5.808;2023-02-28T00:59:07;6.65;;;2.58;;
62582;SDS011;48641;51.676;5.808;2023-02-28T01:01:33;6.10;;;2.72;;
62582;SDS011;48641;51.676;5.808;2023-02-28T01:03:58;6.28;;;2.83;;
62582;SDS011;48641;51.676;5.808;2023-02-28T01:06:24;5.82;;;2.55;;
62582;SDS011;48641;51.676;5.808;2023-02-28T01:08:49;7.20;;;2.63;;
62582;SDS011;48641;51.676;5.808;2023-02-28T01:11:16;5.82;;;2.60;;
62582;SDS011;48641;51.676;5.808;2023-02-28T01:13:43;4.93;;;2.42;;
62582;SDS011;48641;51.676;5.808;2023-02-28T01:16:09;6.55;;;3.10;;
62582;SDS011;48641;51.676;5.808;2023-02-28T01:18:35;5.47;;;2.70;;
62582;SDS011;48641;51.676;5.808;2023-02-28T01:21:05;5.97;;;2.60;;
62582;SDS011;48641;51.676;5.808;2023-02-28T01:23:37;6.30;;;2.53;;
62582;SDS011;48641;51.676;5.808;2023-02-28T01:26:24;7.32;;;2.90;;
62582;SDS011;48641;51.676;5.808;2023-02-28T01:28:49;6.13;;;2.40;;
62582;SDS011;48641;51.676;5.808;2023-02-28T01:31:17;6.00;;;2.85;;
62582;SDS011;48641;51.676;5.808;2023-02-28T01:33:43;6.28;;;2.72;;
62582;SDS011;48641;51.676;5.808;2023-02-28T01:36:16;5.80;;;2.63;;
62582;SDS011;48641;51.676;5.808;2023-02-28T01:38:43;6.03;;;2.75;;
62582;SDS011;48641;51.676;5.808;2023-02-28T01:41:12;6.10;;;2.40;;
62582;SDS011;48641;51.676;5.808;2023-02-28T01:46:08;6.25;;;2.80;;
62582;SDS011;48641;51.676;5.808;2023-02-28T01:48:35;5.70;;;2.55;;
62582;SDS011;48641;51.676;5.808;2023-02-28T01:51:05;6.85;;;2.70;;
62582;SDS011;48641;51.676;5.808;2023-02-28T01:53:41;6.40;;;2.75;;
62582;SDS011;48641;51.676;5.808;2023-02-28T01:56:12;6.15;;;2.60;;
62582;SDS011;48641;51.676;5.808;2023-02-28T01:58:46;5.30;;;2.58;;
62582;SDS011;48641;51.676;5.808;2023-02-28T02:01:12;5.40;;;2.58;;
62582;SDS011;48641;51.676;5.808;2023-02-28T02:03:46;7.32;;;3.00;;
62582;SDS011;48641;51.676;5.808;2023-02-28T02:06:20;5.13;;;2.50;;
62582;SDS011;48641;51.676;5.808;2023-02-28T02:08:50;6.65;;;2.70;;
62582;SDS011;48641;51.676;5.808;2023-02-28T02:11:17;5.63;;;2.40;;
62582;SDS011;48641;51.676;5.808;2023-02-28T02:22:53;6.55;;;2.40;;
62582;SDS011;48641;51.676;5.808;2023-02-28T02:25:28;5.82;;;2.47;;
62582;SDS011;48641;51.676;5.808;2023-02-28T02:33:38;5.77;;;2.93;;
62582;SDS011;48641;51.676;5.808;2023-02-28T02:36:29;6.10;;;2.50;;
62582;SDS011;48641;51.676;5.808;2023-02-28T02:39:11;5.25;;;2.17;;
62582;SDS011;48641;51.676;5.808;2023-02-28T02:41:47;6.07;;;3.38;;
62582;SDS011;48641;51.676;5.808;2023-02-28T02:44:22;5.97;;;2.40;;
62582;SDS011;48641;51.676;5.808;2023-02-28T02:46:58;4.47;;;2.08;;
62582;SDS011;48641;51.676;5.808;2023-02-28T02:49:30;5.50;;;2.20;;
62582;SDS011;48641;51.676;5.808;2023-02-28T02:51:58;5.75;;;2.55;;
62582;SDS011;48641;51.676;5.808;2023-02-28T02:54:29;5.70;;;2.50;;
62582;SDS011;48641;51.676;5.808;2023-02-28T02:56:59;5.18;;;2.38;;
62582;SDS011;48641;51.676;5.808;2023-02-28T02:59:30;5.30;;;2.28;;
62582;SDS011;48641;51.676;5.808;2023-02-28T03:01:57;5.75;;;2.38;;
62582;SDS011;48641;51.676;5.808;2023-02-28T03:04:27;5.90;;;2.70;;
62582;SDS011;48641;51.676;5.808;2023-02-28T03:06:57;5.65;;;2.33;;
62582;SDS011;48641;51.676;5.808;2023-02-28T03:09:23;6.15;;;2.50;;
62582;SDS011;48641;51.676;5.808;2023-02-28T03:11:50;4.97;;;2.25;;
62582;SDS011;48641;51.676;5.808;2023-02-28T03:22:41;5.65;;;2.55;;
62582;SDS011;48641;51.676;5.808;2023-02-28T03:30:59;4.70;;;1.80;;
62582;SDS011;48641;51.676;5.808;2023-02-28T03:33:44;5.30;;;2.10;;
62582;SDS011;48641;51.676;5.808;2023-02-28T03:36:19;5.30;;;2.20;;
62582;SDS011;48641;51.676;5.808;2023-02-28T03:41:44;6.05;;;2.22;;
62582;SDS011;48641;51.676;5.808;2023-02-28T03:44:20;5.03;;;1.83;;
62582;SDS011;48641;51.676;5.808;2023-02-28T03:46:55;4.40;;;2.20;;
62582;SDS011;48641;51.676;5.808;2023-02-28T03:49:30;4.00;;;2.00;;
62582;SDS011;48641;51.676;5.808;2023-02-28T03:52:00;4.30;;;1.90;;
62582;SDS011;48641;51.676;5.808;2023-02-28T03:54:30;4.95;;;2.45;;
62582;SDS011;48641;51.676;5.808;2023-02-28T03:59:42;4.88;;;2.17;;
62582;SDS011;48641;51.676;5.808;2023-02-28T04:02:12;5.15;;;1.90;;
62582;SDS011;48641;51.676;5.808;2023-02-28T04:04:38;5.00;;;1.98;;
62582;SDS011;48641;51.676;5.808;2023-02-28T04:07:13;5.32;;;2.00;;
62582;SDS011;48641;51.676;5.808;2023-02-28T04:09:39;5.03;;;2.08;;
62582;SDS011;48641;51.676;5.808;2023-02-28T04:12:04;4.68;;;2.00;;
62582;SDS011;48641;51.676;5.808;2023-02-28T04:14:30;4.57;;;1.90;;
62582;SDS011;48641;51.676;5.808;2023-02-28T04:16:56;5.25;;;1.90;;
62582;SDS011;48641;51.676;5.808;2023-02-28T04:19:22;4.65;;;2.10;;
62582;SDS011;48641;51.676;5.808;2023-02-28T04:21:48;4.55;;;1.90;;
62582;SDS011;48641;51.676;5.808;2023-02-28T04:24:20;3.65;;;1.90;;
62582;SDS011;48641;51.676;5.808;2023-02-28T04:26:48;5.68;;;2.05;;
62582;SDS011;48641;51.676;5.808;2023-02-28T04:29:22;4.43;;;1.90;;
62582;SDS011;48641;51.676;5.808;2023-02-28T04:31:50;4.25;;;1.70;;
62582;SDS011;48641;51.676;5.808;2023-02-28T04:34:18;5.40;;;1.98;;
62582;SDS011;48641;51.676;5.808;2023-02-28T04:36:43;3.90;;;1.70;;
62582;SDS011;48641;51.676;5.808;2023-02-28T04:39:10;4.70;;;1.73;;
62582;SDS011;48641;51.676;5.808;2023-02-28T04:41:36;4.70;;;1.98;;
62582;SDS011;48641;51.676;5.808;2023-02-28T04:44:02;3.90;;;1.60;;
62582;SDS011;48641;51.676;5.808;2023-02-28T04:46:28;5.05;;;2.08;;
62582;SDS011;48641;51.676;5.808;2023-02-28T04:48:53;4.03;;;1.75;;
62582;SDS011;48641;51.676;5.808;2023-02-28T04:51:19;3.92;;;1.90;;
62582;SDS011;48641;51.676;5.808;2023-02-28T04:53:45;6.25;;;2.10;;
62582;SDS011;48641;51.676;5.808;2023-02-28T04:56:14;4.18;;;1.98;;
62582;SDS011;48641;51.676;5.808;2023-02-28T04:58:41;5.63;;;2.03;;
62582;SDS011;48641;51.676;5.808;2023-02-28T05:01:29;4.07;;;1.58;;
62582;SDS011;48641;51.676;5.808;2023-02-28T05:03:55;3.95;;;1.65;;
62582;SDS011;48641;51.676;5.808;2023-02-28T05:06:23;3.75;;;1.83;;
62582;SDS011;48641;51.676;5.808;2023-02-28T05:08:50;4.32;;;1.88;;
62582;SDS011;48641;51.676;5.808;2023-02-28T05:11:20;4.53;;;1.83;;
62582;SDS011;48641;51.676;5.808;2023-02-28T05:13:51;4.20;;;1.70;;
62582;SDS011;48641;51.676;5.808;2023-02-28T05:16:17;3.72;;;1.70;;
62582;SDS011;48641;51.676;5.808;2023-02-28T05:18:44;4.18;;;1.60;;
62582;SDS011;48641;51.676;5.808;2023-02-28T05:21:53;4.43;;;1.77;;
62582;SDS011;48641;51.676;5.808;2023-02-28T05:24:01;4.85;;;1.65;;
62582;SDS011;48641;51.676;5.808;2023-02-28T05:26:39;3.28;;;1.42;;
62582;SDS011;48641;51.676;5.808;2023-02-28T05:29:06;4.20;;;1.67;;
62582;SDS011;48641;51.676;5.808;2023-02-28T05:31:32;3.40;;;1.50;;
62582;SDS011;48641;51.676;5.808;2023-02-28T05:33:58;4.22;;;1.70;;
62582;SDS011;48641;51.676;5.808;2023-02-28T05:36:24;4.60;;;1.80;;
62582;SDS011;48641;51.676;5.808;2023-02-28T05:38:50;4.03;;;1.50;;
62582;SDS011;48641;51.676;5.808;2023-02-28T05:41:16;4.43;;;1.70;;
62582;SDS011;48641;51.676;5.808;2023-02-28T05:43:44;3.78;;;1.75;;
62582;SDS011;48641;51.676;5.808;2023-02-28T05:46:10;5.03;;;1.77;;
62582;SDS011;48641;51.676;5.808;2023-02-28T05:48:37;5.30;;;1.70;;
62582;SDS011;48641;51.676;5.808;2023-02-28T05:51:04;4.18;;;1.60;;
62582;SDS011;48641;51.676;5.808;2023-02-28T05:53:31;3.97;;;1.70;;
62582;SDS011;48641;51.676;5.808;2023-02-28T05:55:57;3.83;;;1.50;;
62582;SDS011;48641;51.676;5.808;2023-02-28T05:58:22;4.30;;;1.67;;
62582;SDS011;48641;51.676;5.808;2023-02-28T06:00:50;4.13;;;1.60;;
62582;SDS011;48641;51.676;5.808;2023-02-28T06:03:16;4.80;;;1.60;;
62582;SDS011;48641;51.676;5.808;2023-02-28T06:05:41;4.55;;;1.77;;
62582;SDS011;48641;51.676;5.808;2023-02-28T06:08:07;3.40;;;1.60;;
62582;SDS011;48641;51.676;5.808;2023-02-28T06:10:33;3.13;;;1.40;;
62582;SDS011;48641;51.676;5.808;2023-02-28T06:13:00;3.08;;;1.48;;
62582;SDS011;48641;51.676;5.808;2023-02-28T06:15:27;3.13;;;1.70;;
62582;SDS011;48641;51.676;5.808;2023-02-28T06:17:53;3.80;;;1.60;;
62582;SDS011;48641;51.676;5.808;2023-02-28T06:20:18;3.05;;;1.60;;
62582;SDS011;48641;51.676;5.808;2023-02-28T06:22:44;4.07;;;1.50;;
62582;SDS011;48641;51.676;5.808;2023-02-28T06:25:10;4.45;;;1.80;;
62582;SDS011;48641;51.676;5.808;2023-02-28T06:27:36;3.38;;;1.63;;
62582;SDS011;48641;51.676;5.808;2023-02-28T06:30:05;3.85;;;1.70;;
62582;SDS011;48641;51.676;5.808;2023-02-28T06:32:31;3.78;;;1.35;;
62582;SDS011;48641;51.676;5.808;2023-02-28T06:34:57;3.22;;;1.40;;
62582;SDS011;48641;51.676;5.808;2023-02-28T06:37:23;3.30;;;1.42;;
62582;SDS011;48641;51.676;5.808;2023-02-28T06:39:51;3.28;;;1.30;;
62582;SDS011;48641;51.676;5.808;2023-02-28T07:24:19;3.35;;;1.38;;
62582;SDS011;48641;51.676;5.808;2023-02-28T07:26:45;3.45;;;1.45;;
62582;SDS011;48641;51.676;5.808;2023-02-28T07:29:10;3.08;;;1.50;;
62582;SDS011;48641;51.676;5.808;2023-02-28T07:31:36;2.90;;;1.40;;
62582;SDS011;48641;51.676;5.808;2023-02-28T07:34:01;4.72;;;1.60;;
62582;SDS011;48641;51.676;5.808;2023-02-28T07:36:28;3.47;;;1.60;;
62582;SDS011;48641;51.676;5.808;2023-02-28T07:38:53;3.63;;;1.30;;
62582;SDS011;48641;51.676;5.808;2023-02-28T07:41:20;3.78;;;1.50;;
62582;SDS011;48641;51.676;5.808;2023-02-28T07:43:47;3.17;;;1.50;;
62582;SDS011;48641;51.676;5.808;2023-02-28T07:46:15;5.25;;;1.60;;
62582;SDS011;48641;51.676;5.808;2023-02-28T07:48:41;3.40;;;1.50;;
62582;SDS011;48641;51.676;5.808;2023-02-28T07:51:08;3.53;;;1.40;;
62582;SDS011;48641;51.676;5.808;2023-02-28T07:53:34;2.70;;;1.30;;
62582;SDS011;48641;51.676;5.808;2023-02-28T07:56:00;2.95;;;1.27;;
62582;SDS011;48641;51.676;5.808;2023-02-28T07:58:27;3.40;;;1.30;;
62582;SDS011;48641;51.676;5.808;2023-02-28T08:00:54;3.30;;;1.30;;
62582;SDS011;48641;51.676;5.808;2023-02-28T08:03:20;3.17;;;1.38;;
62582;SDS011;48641;51.676;5.808;2023-02-28T08:05:47;2.67;;;1.35;;
62582;SDS011;48641;51.676;5.808;2023-02-28T08:08:14;3.40;;;1.50;;
62582;SDS011;48641;51.676;5.808;2023-02-28T08:10:41;3.75;;;1.30;;
62582;SDS011;48641;51.676;5.808;2023-02-28T08:13:07;3.53;;;1.40;;
62582;SDS011;48641;51.676;5.808;2023-02-28T08:15:32;2.33;;;1.20;;
62582;SDS011;48641;51.676;5.808;2023-02-28T08:17:58;3.28;;;1.50;;
62582;SDS011;48641;51.676;5.808;2023-02-28T08:20:25;3.85;;;1.40;;
62582;SDS011;48641;51.676;5.808;2023-02-28T08:22:51;3.13;;;1.30;;
62582;SDS011;48641;51.676;5.808;2023-02-28T08:25:17;3.17;;;1.20;;
62582;SDS011;48641;51.676;5.808;2023-02-28T08:27:43;4.20;;;1.40;;
62582;SDS011;48641;51.676;5.808;2023-02-28T08:30:10;3.10;;;1.20;;
62582;SDS011;48641;51.676;5.808;2023-02-28T08:32:37;2.92;;;1.20;;
62582;SDS011;48641;51.676;5.808;2023-02-28T08:35:04;2.72;;;1.13;;
62582;SDS011;48641;51.676;5.808;2023-02-28T08:37:30;2.20;;;1.10;;
62582;SDS011;48641;51.676;5.808;2023-02-28T08:39:56;2.70;;;1.23;;
62582;SDS011;48641;51.676;5.808;2023-02-28T08:42:21;3.70;;;1.23;;
62582;SDS011;48641;51.676;5.808;2023-02-28T08:44:47;2.50;;;1.08;;
62582;SDS011;48641;51.676;5.808;2023-02-28T08:47:13;3.30;;;1.20;;
62582;SDS011;48641;51.676;5.808;2023-02-28T08:49:38;3.25;;;1.33;;
62582;SDS011;48641;51.676;5.808;2023-02-28T08:52:04;2.83;;;1.15;;
62582;SDS011;48641;51.676;5.808;2023-02-28T08:54:30;2.97;;;1.38;;
62582;SDS011;48641;51.676;5.808;2023-02-28T08:56:57;3.38;;;1.20;;
62582;SDS011;48641;51.676;5.808;2023-02-28T08:59:22;3.13;;;1.27;;
62582;SDS011;48641;51.676;5.808;2023-02-28T09:01:48;1.67;;;0.90;;
62582;SDS011;48641;51.676;5.808;2023-02-28T09:04:13;1.65;;;1.00;;
62582;SDS011;48641;51.676;5.808;2023-02-28T09:06:39;1.90;;;1.05;;
62582;SDS011;48641;51.676;5.808;2023-02-28T09:09:05;2.38;;;0.90;;
62582;SDS011;48641;51.676;5.808;2023-02-28T09:11:32;2.15;;;1.10;;
62582;SDS011;48641;51.676;5.808;2023-02-28T09:14:04;2.35;;;1.13;;
62582;SDS011;48641;51.676;5.808;2023-02-28T09:16:31;3.25;;;1.10;;
62582;SDS011;48641;51.676;5.808;2023-02-28T09:55:58;2.35;;;0.90;;
62582;SDS011;48641;51.676;5.808;2023-02-28T10:04:33;3.13;;;1.00;;
62582;SDS011;48641;51.676;5.808;2023-02-28T10:07:00;2.33;;;0.90;;
62582;SDS011;48641;51.676;5.808;2023-02-28T10:09:31;1.95;;;0.80;;
62582;SDS011;48641;51.676;5.808;2023-02-28T10:12:03;2.10;;;0.90;;
62582;SDS011;48641;51.676;5.808;2023-02-28T10:14:31;2.63;;;0.93;;
62582;SDS011;48641;51.676;5.808;2023-02-28T10:17:03;2.65;;;0.90;;
62582;SDS011;48641;51.676;5.808;2023-02-28T10:19:35;1.90;;;0.90;;
62582;SDS011;48641;51.676;5.808;2023-02-28T10:22:38;2.45;;;0.90;;
62582;SDS011;48641;51.676;5.808;2023-02-28T10:25:22;2.25;;;0.90;;
62582;SDS011;48641;51.676;5.808;2023-02-28T10:28:11;2.67;;;0.90;;
62582;SDS011;48641;51.676;5.808;2023-02-28T10:30:44;2.33;;;0.80;;
62582;SDS011;48641;51.676;5.808;2023-02-28T10:33:31;2.00;;;0.70;;
62582;SDS011;48641;51.676;5.808;2023-02-28T10:35:59;2.40;;;0.70;;
62582;SDS011;48641;51.676;5.808;2023-02-28T10:38:27;2.10;;;0.80;;
62582;SDS011;48641;51.676;5.808;2023-02-28T10:41:04;1.08;;;0.70;;
62582;SDS011;48641;51.676;5.808;2023-02-28T10:43:35;1.38;;;0.90;;
62582;SDS011;48641;51.676;5.808;2023-02-28T10:48:38;1.65;;;0.82;;
62582;SDS011;48641;51.676;5.808;2023-02-28T10:51:06;1.52;;;0.80;;
62582;SDS011;48641;51.676;5.808;2023-02-28T10:56:17;2.38;;;1.10;;
62582;SDS011;48641;51.676;5.808;2023-02-28T11:03:49;2.30;;;0.82;;
62582;SDS011;48641;51.676;5.808;2023-02-28T11:06:17;1.30;;;0.77;;
62582;SDS011;48641;51.676;5.808;2023-02-28T11:08:49;2.17;;;0.70;;
62582;SDS011;48641;51.676;5.808;2023-02-28T11:11:20;1.38;;;0.80;;
62582;SDS011;48641;51.676;5.808;2023-02-28T11:13:48;1.45;;;0.75;;
62582;SDS011;48641;51.676;5.808;2023-02-28T11:16:17;1.40;;;0.73;;
62582;SDS011;48641;51.676;5.808;2023-02-28T11:21:17;1.60;;;0.80;;
62582;SDS011;48641;51.676;5.808;2023-02-28T11:23:50;1.20;;;0.70;;
62582;SDS011;48641;51.676;5.808;2023-02-28T11:26:34;1.30;;;0.65;;
62582;SDS011;48641;51.676;5.808;2023-02-28T11:29:12;1.67;;;0.85;;
62582;SDS011;48641;51.676;5.808;2023-02-28T11:34:26;1.52;;;0.70;;
62582;SDS011;48641;51.676;5.808;2023-02-28T11:36:53;1.23;;;0.60;;
62582;SDS011;48641;51.676;5.808;2023-02-28T11:39:22;2.13;;;0.80;;
62582;SDS011;48641;51.676;5.808;2023-02-28T11:41:55;1.52;;;0.80;;
62582;SDS011;48641;51.676;5.808;2023-02-28T11:44:35;1.67;;;0.77;;
62582;SDS011;48641;51.676;5.808;2023-02-28T11:50:31;1.05;;;0.70;;
62582;SDS011;48641;51.676;5.808;2023-02-28T11:53:12;2.65;;;0.80;;
62582;SDS011;48641;51.676;5.808;2023-02-28T11:56:00;2.13;;;0.93;;
62582;SDS011;48641;51.676;5.808;2023-02-28T12:04:33;1.27;;;0.73;;
62582;SDS011;48641;51.676;5.808;2023-02-28T12:09:41;1.85;;;0.80;;
62582;SDS011;48641;51.676;5.808;2023-02-28T12:18:03;2.08;;;0.75;;
62582;SDS011;48641;51.676;5.808;2023-02-28T12:20:57;1.70;;;0.80;;
62582;SDS011;48641;51.676;5.808;2023-02-28T12:23:48;1.63;;;0.70;;
62582;SDS011;48641;51.676;5.808;2023-02-28T12:31:36;2.50;;;0.80;;
62582;SDS011;48641;51.676;5.808;2023-02-28T12:34:06;2.20;;;0.85;;
62582;SDS011;48641;51.676;5.808;2023-02-28T12:36:37;2.08;;;0.77;;
62582;SDS011;48641;51.676;5.808;2023-02-28T12:39:13;1.67;;;0.70;;
62582;SDS011;48641;51.676;5.808;2023-02-28T12:44:13;3.10;;;0.70;;
62582;SDS011;48641;51.676;5.808;2023-02-28T12:46:44;3.70;;;1.15;;
62582;SDS011;48641;51.676;5.808;2023-02-28T12:49:16;1.88;;;0.63;;
62582;SDS011;48641;51.676;5.808;2023-02-28T12:51:52;1.00;;;0.60;;
62582;SDS011;48641;51.676;5.808;2023-02-28T12:57:10;2.50;;;0.70;;
62582;SDS011;48641;51.676;5.808;2023-02-28T13:10:17;1.30;;;0.68;;
62582;SDS011;48641;51.676;5.808;2023-02-28T13:12:50;1.75;;;0.60;;
62582;SDS011;48641;51.676;5.808;2023-02-28T13:15:19;2.38;;;0.70;;
62582;SDS011;48641;51.676;5.808;2023-02-28T13:17:51;2.80;;;0.90;;
62582;SDS011;48641;51.676;5.808;2023-02-28T13:20:20;3.05;;;1.00;;
62582;SDS011;48641;51.676;5.808;2023-02-28T13:22:49;1.75;;;0.70;;
62582;SDS011;48641;51.676;5.808;2023-02-28T13:27:58;2.20;;;0.68;;
62582;SDS011;48641;51.676;5.808;2023-02-28T13:33:37;4.00;;;1.10;;
62582;SDS011;48641;51.676;5.808;2023-02-28T13:36:26;2.03;;;0.80;;
62582;SDS011;48641;51.676;5.808;2023-02-28T13:38:57;4.82;;;1.00;;
62582;SDS011;48641;51.676;5.808;2023-02-28T13:46:26;5.70;;;1.17;;
62582;SDS011;48641;51.676;5.808;2023-02-28T13:48:52;2.38;;;0.98;;
62582;SDS011;48641;51.676;5.808;2023-02-28T13:52:20;2.63;;;0.90;;
62582;SDS011;48641;51.676;5.808;2023-02-28T13:54:24;2.85;;;0.80;;
62582;SDS011;48641;51.676;5.808;2023-02-28T13:57:18;3.60;;;0.90;;
62582;SDS011;48641;51.676;5.808;2023-02-28T14:05:32;2.10;;;0.88;;
62582;SDS011;48641;51.676;5.808;2023-02-28T14:08:03;2.42;;;0.80;;
62582;SDS011;48641;51.676;5.808;2023-02-28T14:10:42;2.08;;;0.77;;
62582;SDS011;48641;51.676;5.808;2023-02-28T14:13:12;3.28;;;0.82;;
62582;SDS011;48641;51.676;5.808;2023-02-28T14:15:59;1.38;;;0.70;;
62582;SDS011;48641;51.676;5.808;2023-02-28T14:20:55;2.47;;;0.60;;
62582;SDS011;48641;51.676;5.808;2023-02-28T14:26:29;3.47;;;1.13;;
62582;SDS011;48641;51.676;5.808;2023-02-28T14:32:13;2.97;;;0.63;;
62582;SDS011;48641;51.676;5.808;2023-02-28T14:37:28;1.50;;;0.73;;
62582;SDS011;48641;51.676;5.808;2023-02-28T14:39:57;1.05;;;0.65;;
62582;SDS011;48641;51.676;5.808;2023-02-28T14:42:35;1.57;;;0.60;;
62582;SDS011;48641;51.676;5.808;2023-02-28T14:45:21;1.50;;;0.63;;
62582;SDS011;48641;51.676;5.808;2023-02-28T14:47:48;2.45;;;0.80;;
62582;SDS011;48641;51.676;5.808;2023-02-28T14:50:20;2.15;;;0.70;;
62582;SDS011;48641;51.676;5.808;2023-02-28T14:52:52;2.45;;;0.70;;
62582;SDS011;48641;51.676;5.808;2023-02-28T14:55:20;2.28;;;0.82;;
62582;SDS011;48641;51.676;5.808;2023-02-28T14:57:51;2.25;;;0.80;;
62582;SDS011;48641;51.676;5.808;2023-02-28T15:00:29;3.05;;;0.80;;
62582;SDS011;48641;51.676;5.808;2023-02-28T15:02:57;2.08;;;0.70;;
62582;SDS011;48641;51.676;5.808;2023-02-28T15:05:28;1.67;;;0.70;;
62582;SDS011;48641;51.676;5.808;2023-02-28T15:10:35;2.05;;;0.60;;
62582;SDS011;48641;51.676;5.808;2023-02-28T15:13:05;0.93;;;0.60;;
62582;SDS011;48641;51.676;5.808;2023-02-28T15:18:08;1.38;;;0.68;;
62582;SDS011;48641;51.676;5.808;2023-02-28T15:20:52;2.33;;;0.90;;
62582;SDS011;48641;51.676;5.808;2023-02-28T15:23:19;1.00;;;0.60;;
62582;SDS011;48641;51.676;5.808;2023-02-28T15:25:46;1.95;;;0.60;;
62582;SDS011;48641;51.676;5.808;2023-02-28T15:28:18;1.75;;;0.70;;
62582;SDS011;48641;51.676;5.808;2023-02-28T15:30:53;1.50;;;0.60;;
62582;SDS011;48641;51.676;5.808;2023-02-28T15:33:24;2.72;;;0.60;;
62582;SDS011;48641;51.676;5.808;2023-02-28T15:36:11;1.75;;;0.73;;
62582;SDS011;48641;51.676;5.808;2023-02-28T15:38:39;1.60;;;0.70;;
62582;SDS011;48641;51.676;5.808;2023-02-28T15:41:20;2.60;;;0.73;;
62582;SDS011;48641;51.676;5.808;2023-02-28T15:46:41;3.27;;;0.90;;
62582;SDS011;48641;51.676;5.808;2023-02-28T15:49:17;0.70;;;0.60;;
62582;SDS011;48641;51.676;5.808;2023-02-28T15:51:45;1.58;;;0.60;;
62582;SDS011;48641;51.676;5.808;2023-02-28T15:54:34;1.30;;;0.60;;
62582;SDS011;48641;51.676;5.808;2023-02-28T15:57:06;1.65;;;0.70;;
62582;SDS011;48641;51.676;5.808;2023-02-28T15:59:36;1.77;;;0.70;;
62582;SDS011;48641;51.676;5.808;2023-02-28T16:04:28;2.35;;;0.90;;
62582;SDS011;48641;51.676;5.808;2023-02-28T16:09:26;1.77;;;0.70;;
62582;SDS011;48641;51.676;5.808;2023-02-28T16:11:53;1.10;;;0.60;;
62582;SDS011;48641;51.676;5.808;2023-02-28T16:14:24;1.98;;;1.05;;
62582;SDS011;48641;51.676;5.808;2023-02-28T16:17:04;1.50;;;0.80;;
62582;SDS011;48641;51.676;5.808;2023-02-28T16:19:31;2.28;;;0.68;;
62582;SDS011;48641;51.676;5.808;2023-02-28T16:21:57;1.95;;;0.68;;
62582;SDS011;48641;51.676;5.808;2023-02-28T16:24:23;1.30;;;0.70;;
62582;SDS011;48641;51.676;5.808;2023-02-28T16:26:49;2.28;;;0.70;;
62582;SDS011;48641;51.676;5.808;2023-02-28T16:29:28;1.73;;;0.70;;
62582;SDS011;48641;51.676;5.808;2023-02-28T16:31:56;3.10;;;0.77;;
62582;SDS011;48641;51.676;5.808;2023-02-28T16:34:22;1.58;;;0.70;;
62582;SDS011;48641;51.676;5.808;2023-02-28T16:36:48;1.80;;;0.80;;
62582;SDS011;48641;51.676;5.808;2023-02-28T16:39:15;1.58;;;0.65;;
62582;SDS011;48641;51.676;5.808;2023-02-28T16:41:44;2.10;;;0.63;;
62582;SDS011;48641;51.676;5.808;2023-02-28T16:44:12;1.75;;;0.70;;
62582;SDS011;48641;51.676;5.808;2023-02-28T16:46:48;1.92;;;0.80;;
62582;SDS011;48641;51.676;5.808;2023-02-28T16:49:13;1.55;;;0.70;;
62582;SDS011;48641;51.676;5.808;2023-02-28T16:51:39;1.73;;;0.70;;
62582;SDS011;48641;51.676;5.808;2023-02-28T16:54:05;2.65;;;0.70;;
62582;SDS011;48641;51.676;5.808;2023-02-28T16:56:30;1.42;;;0.60;;
62582;SDS011;48641;51.676;5.808;2023-02-28T16:58:59;2.85;;;0.80;;
62582;SDS011;48641;51.676;5.808;2023-02-28T17:01:26;2.40;;;0.85;;
62582;SDS011;48641;51.676;5.808;2023-02-28T17:03:53;3.53;;;0.73;;
62582;SDS011;48641;51.676;5.808;2023-02-28T17:06:23;4.15;;;1.00;;
62582;SDS011;48641;51.676;5.808;2023-02-28T17:08:51;1.83;;;0.80;;
62582;SDS011;48641;51.676;5.808;2023-02-28T17:11:18;3.20;;;0.90;;
62582;SDS011;48641;51.676;5.808;2023-02-28T17:13:44;4.75;;;0.77;;
62582;SDS011;48641;51.676;5.808;2023-02-28T17:16:15;1.95;;;0.70;;
62582;SDS011;48641;51.676;5.808;2023-02-28T17:18:47;3.22;;;0.80;;
62582;SDS011;48641;51.676;5.808;2023-02-28T17:21:14;1.85;;;0.80;;
62582;SDS011;48641;51.676;5.808;2023-02-28T17:23:40;3.38;;;0.98;;
62582;SDS011;48641;51.676;5.808;2023-02-28T17:26:06;2.22;;;0.80;;
62582;SDS011;48641;51.676;5.808;2023-02-28T17:28:37;3.22;;;0.80;;
62582;SDS011;48641;51.676;5.808;2023-02-28T17:31:03;3.90;;;1.00;;
62582;SDS011;48641;51.676;5.808;2023-02-28T18:29:22;2.45;;;1.00;;
62582;SDS011;48641;51.676;5.808;2023-02-28T18:31:50;1.77;;;0.85;;
62582;SDS011;48641;51.676;5.808;2023-02-28T18:34:16;2.78;;;1.05;;
62582;SDS011;48641;51.676;5.808;2023-02-28T18:36:42;2.75;;;1.20;;
62582;SDS011;48641;51.676;5.808;2023-02-28T18:39:11;2.50;;;1.17;;
62582;SDS011;48641;51.676;5.808;2023-02-28T18:41:37;3.40;;;1.20;;
62582;SDS011;48641;51.676;5.808;2023-02-28T18:44:02;3.17;;;1.10;;
62582;SDS011;48641;51.676;5.808;2023-02-28T18:46:28;3.50;;;1.30;;
62582;SDS011;48641;51.676;5.808;2023-02-28T18:48:54;2.65;;;1.20;;
62582;SDS011;48641;51.676;5.808;2023-02-28T18:51:21;4.72;;;1.20;;
62582;SDS011;48641;51.676;5.808;2023-02-28T18:53:48;3.30;;;1.20;;
62582;SDS011;48641;51.676;5.808;2023-02-28T18:56:15;3.55;;;1.30;;
62582;SDS011;48641;51.676;5.808;2023-02-28T18:58:43;3.25;;;1.38;;
62582;SDS011;48641;51.676;5.808;2023-02-28T19:01:17;3.95;;;1.40;;
62582;SDS011;48641;51.676;5.808;2023-02-28T19:03:45;2.60;;;1.30;;
62582;SDS011;48641;51.676;5.808;2023-02-28T19:06:11;4.00;;;1.40;;
62582;SDS011;48641;51.676;5.808;2023-02-28T19:08:37;3.70;;;1.50;;
62582;SDS011;48641;51.676;5.808;2023-02-28T19:11:10;2.90;;;1.20;;
62582;SDS011;48641;51.676;5.808;2023-02-28T19:13:37;4.05;;;1.55;;
62582;SDS011;48641;51.676;5.808;2023-02-28T19:16:04;3.13;;;1.38;;
62582;SDS011;48641;51.676;5.808;2023-02-28T19:18:31;4.70;;;1.60;;
62582;SDS011;48641;51.676;5.808;2023-02-28T19:20:57;3.38;;;1.25;;
62582;SDS011;48641;51.676;5.808;2023-02-28T19:23:23;4.22;;;1.50;;
62582;SDS011;48641;51.676;5.808;2023-02-28T19:25:50;3.78;;;1.60;;
62582;SDS011;48641;51.676;5.808;2023-02-28T19:28:15;2.83;;;1.40;;
62582;SDS011;48641;51.676;5.808;2023-02-28T19:30:47;4.00;;;1.60;;
62582;SDS011;48641;51.676;5.808;2023-02-28T19:33:15;2.78;;;1.25;;
62582;SDS011;48641;51.676;5.808;2023-02-28T19:35:41;4.07;;;1.55;;
62582;SDS011;48641;51.676;5.808;2023-02-28T19:38:07;4.25;;;1.40;;